Peacham, VT (05862)

10:40 PM EDT on March 26, 2015 (GMT -0400)
Northern Skies Observatory | | Change Station
CLOSE
Current Station
Personal Weather Station
Location: Peacham, VT
Elevation: 1250 ft
Nearby Weather Stations

Elev 1250 ft 44.33 °N, 72.17 °W | Updated 4 minutes ago

Rain
Rain
33.4 °F
Feels Like 33 °F
N
0.0
Wind Variable Wind from NNW
Gusts 0.0 mph

Today
High -- | Low -- °F
--% Chance of Precip.
Yesterday
High -- | Low -- °F
Precip. -- in
6:41 AM 7:08 PM
Waxing Crescent, 48% visible
Pressure 29.71 in
Visibility 3.0 miles
Clouds Scattered Clouds 400 ft
Scattered Clouds 900 ft
Overcast 1600 ft
Windchill 33 °F
Dew Point 32 °F
Humidity 96%
Rainfall 0.40 in
Snow Depth Not available.
UV 0 out of 12
Pollen 2.80 out of 12
Air Quality Not available.
Flu Activity Not available.
METAR KCDA 270235Z AUTO 00000KT 3SM -RA SCT004 SCT009 OVC016 01/00 A2971 RMK AO2 T00071002

More Conditions Fewer Conditions

Pressure 29.71 in
Visibility 3.0 miles
Clouds Scattered Clouds 400 ft
Scattered Clouds 900 ft
Overcast 1600 ft
Windchill 33 °F
Dew Point 32 °F
Humidity 96%
Rainfall 0.40 in
Snow Depth Not available.
UV 0 out of 12
Pollen 2.80 out of 12
Air Quality Not available.
Flu Activity Not available.
METAR KCDA 270235Z AUTO 00000KT 3SM -RA SCT004 SCT009 OVC016 01/00 A2971 RMK AO2 T00071002

More Conditions Fewer Conditions

10-Day Weather Forecast

Almanac

Astronomy

Mar. 26, 2015 Rise Set
Actual Time
Civil Twilight
Nautical Twilight
Astronomical Twilight
Moon
Length of Visible Light
Length of Day
Tomorrow will be .
, % of the Moon is Illuminated

Today's Extremes

State Highs State Lows

Community

WunderPhotos

Upload Photos

1,808,689 photos uploaded!

WunderBlogs® & News

Nearby

Air Quality

  Air Quality AQ Index Pollutant
Not available.

Snow Depth

Station Depth Elevation

Earthquake Activity

City Distance Mag. Time & Date
Minimum magnitude displayed is 2.5.

Coastal Water Temperatures

Place Temperature

Stations

Nearby Weather Stations

Station Location Temp. Windchill Dew Point Humidity Wind Precip. Elev Updated Type